Terminal Aerodrome Forecast
Issued by NWS Bismarck, ND

Home | Current Version | Previous Version | Graphics & Text | Print | Product List | Glossary On
Versions: 1 2 3 4 5 6 7 8 9 10 11 12 13 14 15 16 17
000
FTUS43 KBIS 031055 AAB
TAFBIS
TAF AMD
KBIS 031055Z 0311/0406 33012KT P6SM -RA OVC070
     FM031200 35010KT P6SM VCSH BKN060 OVC090
     FM031600 33015G20KT P6SM SCT150
     FM040100 36008KT P6SM SKC=

USA.gov is the U.S. government's official web portal to all federal, state and local government web resources and services.